Terminal Aerodrome Forecast
Issued by NWS

Home | Current Version | Previous Version | Text Only | Print | Product List | Glossary On
Versions: 1 2 3 4 5 6 7 8 9 10 11 12 13 14 15 16 17 18 19 20 21 22 23 24 25 26 27 28 29 30
000
FTUS43 KDVN 231904 AAA
TAFCID
TAF AMD
KCID 231904Z 2319/2418 06012G20KT P6SM VCSH OVC080
     FM240000 07016G20KT 3SM -RA BR OVC012
     FM240500 08018G26KT 2SM -RA BR OVC005
     FM241500 34011KT 4SM BR OVC008=

USA.gov is the U.S. government's official web portal to all federal, state and local government web resources and services.